Airfield :
LOGIN :

Register | Disclaimer

   EN    FR    IT 

 










Legend :    VFR   Marginal VFR   IFR   Intensive IFR   Very Intensive IFR
Visi :
Ceiling :
>= 8 km
>= 3000ft
5 to 8 km
1000 to 3000 ft
1500m to 5 km
500 to 1000 ft
800 to 1500m
200 to 500 ft
< 800m
< 200 ft
Symbols :   Thunderstorms  Fog  Heavy snow  Heavy precipitations  Wind > 20 kt
SIGMETs :     Misc.  Thunderstorms  Icing  Turbulence  Mountain Waves  Volcanic Ashes







- Airport Elevation : 30 ft
- IATA code : CFN


EIDL - Donegal

CURRENT METAR :
  • 121330Z 18019KT 3900 -DZ OVC011 05/04 Q0996 REDZ

EXPIRED METARs :
  • 121300Z 18017KT 3100 -RA BKN012 OVC017 05/04 Q0996
  • 121200Z 18015KT 9999 -RA NSC 05/03 Q0999
  • 121100Z 18012KT 9999 -RA SCT027 05/03 Q1000

TAF AMD TAF EIDL
Valid from the 12 at 13:00 until the 12 at 21:00 UTC


121314Z 1213/1221 18018G28KT 9999 -RA BKN020
TEMPO 1213/1215 3000 RA BKN010
BECMG 1213/1215 24018G30KT
BECMG 1215/1217 28017G28KT NSW
No reported NOTAMs for that airfield.
2 SIGMETs reported for the Shannon FIR (EISN) :
 
Severe turbulence
EISN SIGMET 03 VALID 121430/121830 EINN
EISN SHANNON FIR/UIR SEV TURB FCST WI N5100 W00800 - N5420 W01200 - N5434 W01000 - N5445 W00900 - N5425 W00810 - N5215 W00540 - N5100 W00800 FL220/410 MOV ENE AT 18KT NC=
Severe turbulence
EISN SIGMET 02 VALID 121030/121430 EINN
EISN SHANNON FIR/UIR SEV TURB FCST WI N5210 W00549 - N5100 W00800 - N5100 W00940 - N5405 W01414 - N5431 W01030 - N5210 W00549 FL200/410 MOV E AT 15KT WKN=



MET'MAP, your aeronautical weather chart ! - Copyright ORBIFLY December 2007 - Disclaimer

ORBIFLY MET'MAP TEAM :

Programming & Development : Alexandra Zaïnal
Concept & Development : Baudouin d'Aumeries
Co-Development & Prog : Marc-Olivier Méhu
Technical & hardware support : Manuel Goepfert

Contact : metmap@orbifly.com




SOURCES & CREDITS :

   NOAA